Delaware, Iowa
Current Conditions -  °F | °C
As of 3:15 PM on Saturday 22 Nov 2014 (Local Time) from KMXO Reporting Station
Haze Haze  
Wind Chill: 50°   Ceiling: 1300
Heat Index: 50°   Visibility: 5mi
Dew Point: 48°   Wind: 9mph
Humidity: 94%   Direction: 190°S
Pressure: 29.78"   Gusts: NA
Location:  42.48°N, 91.35°W
Report Text: KMXO 222115Z AUTO 19008KT 5SM BR SCT010 BKN013 OVC025 10/09 A2978 RMK AO2
Loading
Personal Weather Stations






























Interactive Weather Map New forecast layout! Learn more

10-Day Weather Forecast

Advertisements
Track Severe Weather on mobile